sensor_id;sensor_type;location;lat;lon;timestamp;pressure;altitude;pressure_sealevel;temperature;humidity
78986;BME280;68384;55.750;48.746;2023-05-29T00:00:36;98981.53;;;12.30;89.77
78986;BME280;68384;55.750;48.746;2023-05-29T00:01:39;98970.19;;;12.22;89.70
78986;BME280;68384;55.750;48.746;2023-05-29T00:02:43;98976.25;;;12.24;89.70
78986;BME280;68384;55.750;48.746;2023-05-29T00:03:47;98980.56;;;12.22;89.57
78986;BME280;68384;55.750;48.746;2023-05-29T00:04:51;98975.38;;;12.22;89.79
78986;BME280;68384;55.750;48.746;2023-05-29T00:05:56;98973.63;;;12.21;89.88
78986;BME280;68384;55.750;48.746;2023-05-29T00:06:58;98977.06;;;12.20;89.72
78986;BME280;68384;55.750;48.746;2023-05-29T00:08:02;98977.91;;;12.17;89.83
78986;BME280;68384;55.750;48.746;2023-05-29T00:09:05;98976.97;;;12.12;89.98
78986;BME280;68384;55.750;48.746;2023-05-29T00:10:11;98975.28;;;12.14;90.08
78986;BME280;68384;55.750;48.746;2023-05-29T00:11:15;98980.44;;;12.13;89.91
78986;BME280;68384;55.750;48.746;2023-05-29T00:12:19;98981.34;;;12.13;89.98
78986;BME280;68384;55.750;48.746;2023-05-29T00:13:22;98980.44;;;12.11;89.74
78986;BME280;68384;55.750;48.746;2023-05-29T00:14:27;98980.41;;;12.08;90.00
78986;BME280;68384;55.750;48.746;2023-05-29T00:15:30;98984.66;;;12.06;90.01
78986;BME280;68384;55.750;48.746;2023-05-29T00:16:33;98986.38;;;12.02;90.10
78986;BME280;68384;55.750;48.746;2023-05-29T00:17:37;98991.50;;;11.99;90.13
78986;BME280;68384;55.750;48.746;2023-05-29T00:18:41;98985.41;;;11.96;90.27
78986;BME280;68384;55.750;48.746;2023-05-29T00:19:47;98987.16;;;11.97;90.23
78986;BME280;68384;55.750;48.746;2023-05-29T00:20:52;98981.91;;;11.94;90.33
78986;BME280;68384;55.750;48.746;2023-05-29T00:21:55;98988.84;;;11.93;90.48
78986;BME280;68384;55.750;48.746;2023-05-29T00:22:59;98986.22;;;11.92;90.50
78986;BME280;68384;55.750;48.746;2023-05-29T00:24:02;98992.25;;;11.91;90.52
78986;BME280;68384;55.750;48.746;2023-05-29T00:25:07;98987.06;;;11.91;90.12
78986;BME280;68384;55.750;48.746;2023-05-29T00:26:10;98988.78;;;11.90;90.41
78986;BME280;68384;55.750;48.746;2023-05-29T00:27:16;98981.88;;;11.89;90.49
78986;BME280;68384;55.750;48.746;2023-05-29T00:28:19;98984.38;;;11.85;90.49
78986;BME280;68384;55.750;48.746;2023-05-29T00:29:22;98988.75;;;11.86;90.58
78986;BME280;68384;55.750;48.746;2023-05-29T00:30:25;98986.09;;;11.84;90.53
78986;BME280;68384;55.750;48.746;2023-05-29T00:31:30;98976.53;;;11.80;90.68
78986;BME280;68384;55.750;48.746;2023-05-29T00:32:33;98980.03;;;11.81;90.60
78986;BME280;68384;55.750;48.746;2023-05-29T00:33:38;98985.22;;;11.81;90.62
78986;BME280;68384;55.750;48.746;2023-05-29T00:34:41;98989.47;;;11.77;90.56
78986;BME280;68384;55.750;48.746;2023-05-29T00:35:45;98983.41;;;11.77;90.75
78986;BME280;68384;55.750;48.746;2023-05-29T00:36:48;98983.41;;;11.77;90.65
78986;BME280;68384;55.750;48.746;2023-05-29T00:37:52;98982.56;;;11.78;90.94
78986;BME280;68384;55.750;48.746;2023-05-29T00:38:55;98987.72;;;11.76;90.77
78986;BME280;68384;55.750;48.746;2023-05-29T00:39:59;98995.50;;;11.75;90.79
78986;BME280;68384;55.750;48.746;2023-05-29T00:41:03;98991.19;;;11.75;90.76
78986;BME280;68384;55.750;48.746;2023-05-29T00:42:07;98992.03;;;11.73;90.78
78986;BME280;68384;55.750;48.746;2023-05-29T00:43:11;98990.28;;;11.73;90.65
78986;BME280;68384;55.750;48.746;2023-05-29T00:44:15;98991.16;;;11.74;90.83
78986;BME280;68384;55.750;48.746;2023-05-29T00:45:18;98991.16;;;11.72;90.88
78986;BME280;68384;55.750;48.746;2023-05-29T00:46:22;98992.84;;;11.70;90.98
78986;BME280;68384;55.750;48.746;2023-05-29T00:47:26;98985.03;;;11.69;91.00
78986;BME280;68384;55.750;48.746;2023-05-29T00:48:30;98989.34;;;11.68;90.94
78986;BME280;68384;55.750;48.746;2023-05-29T00:49:34;98986.75;;;11.68;90.98
78986;BME280;68384;55.750;48.746;2023-05-29T00:50:39;98983.31;;;11.69;90.93
78986;BME280;68384;55.750;48.746;2023-05-29T00:51:42;98976.38;;;11.68;91.01
78986;BME280;68384;55.750;48.746;2023-05-29T00:52:47;98981.56;;;11.68;90.89
78986;BME280;68384;55.750;48.746;2023-05-29T00:53:51;98979.84;;;11.69;91.03
78986;BME280;68384;55.750;48.746;2023-05-29T00:54:56;98978.09;;;11.68;90.94
78986;BME280;68384;55.750;48.746;2023-05-29T00:55:59;98984.16;;;11.67;90.76
78986;BME280;68384;55.750;48.746;2023-05-29T00:57:04;98975.47;;;11.68;90.63
78986;BME280;68384;55.750;48.746;2023-05-29T00:58:08;98982.47;;;11.70;90.63
78986;BME280;68384;55.750;48.746;2023-05-29T00:59:13;98979.00;;;11.70;90.64
78986;BME280;68384;55.750;48.746;2023-05-29T01:00:17;98977.28;;;11.70;90.57
78986;BME280;68384;55.750;48.746;2023-05-29T01:01:22;98982.47;;;11.70;90.20
78986;BME280;68384;55.750;48.746;2023-05-29T01:02:26;98976.34;;;11.67;90.09
78986;BME280;68384;55.750;48.746;2023-05-29T01:03:32;98993.75;;;11.74;89.98
78986;BME280;68384;55.750;48.746;2023-05-29T01:04:35;98980.75;;;11.74;90.02
78986;BME280;68384;55.750;48.746;2023-05-29T01:05:40;98985.97;;;11.74;89.99
78986;BME280;68384;55.750;48.746;2023-05-29T01:06:44;98982.47;;;11.73;90.08
78986;BME280;68384;55.750;48.746;2023-05-29T01:07:47;98980.81;;;11.75;90.04
78986;BME280;68384;55.750;48.746;2023-05-29T01:08:51;98983.41;;;11.77;89.80
78986;BME280;68384;55.750;48.746;2023-05-29T01:09:55;98983.47;;;11.80;89.97
78986;BME280;68384;55.750;48.746;2023-05-29T01:11:03;98980.03;;;11.81;89.91
78986;BME280;68384;55.750;48.746;2023-05-29T01:12:18;98978.31;;;11.81;89.87
78986;BME280;68384;55.750;48.746;2023-05-29T01:13:28;98983.50;;;11.83;89.83
78986;BME280;68384;55.750;48.746;2023-05-29T01:14:40;98981.78;;;11.85;89.55
78986;BME280;68384;55.750;48.746;2023-05-29T01:15:53;98983.53;;;11.86;89.55
78986;BME280;68384;55.750;48.746;2023-05-29T01:17:04;98982.66;;;11.87;89.51
78986;BME280;68384;55.750;48.746;2023-05-29T01:18:22;98979.28;;;11.89;89.34
78986;BME280;68384;55.750;48.746;2023-05-29T01:19:50;98973.25;;;11.92;89.29
78986;BME280;68384;55.750;48.746;2023-05-29T01:21:02;98983.69;;;11.95;89.13
78986;BME280;68384;55.750;48.746;2023-05-29T01:22:12;98978.47;;;11.95;88.91
78986;BME280;68384;55.750;48.746;2023-05-29T01:23:38;98983.69;;;11.95;88.92
78986;BME280;68384;55.750;48.746;2023-05-29T01:24:49;98975.00;;;11.94;88.74
78986;BME280;68384;55.750;48.746;2023-05-29T01:26:10;98981.91;;;11.95;88.62
78986;BME280;68384;55.750;48.746;2023-05-29T01:27:17;98990.59;;;11.96;88.34
78986;BME280;68384;55.750;48.746;2023-05-29T01:28:25;98991.47;;;11.98;88.39
78986;BME280;68384;55.750;48.746;2023-05-29T01:29:33;98983.69;;;11.98;88.27
78986;BME280;68384;55.750;48.746;2023-05-29T01:30:39;98986.28;;;11.98;88.29
78986;BME280;68384;55.750;48.746;2023-05-29T01:31:43;98990.63;;;11.99;88.21
78986;BME280;68384;55.750;48.746;2023-05-29T01:32:48;98993.28;;;12.02;88.20
78986;BME280;68384;55.750;48.746;2023-05-29T01:33:52;98988.97;;;12.04;88.20
78986;BME280;68384;55.750;48.746;2023-05-29T01:34:57;98992.44;;;12.06;88.21
78986;BME280;68384;55.750;48.746;2023-05-29T01:36:00;98992.53;;;12.09;88.19
78986;BME280;68384;55.750;48.746;2023-05-29T01:37:04;99000.31;;;12.09;88.19
78986;BME280;68384;55.750;48.746;2023-05-29T01:38:07;98996.06;;;12.14;88.11
78986;BME280;68384;55.750;48.746;2023-05-29T01:39:10;98992.59;;;12.15;88.17
78986;BME280;68384;55.750;48.746;2023-05-29T01:40:14;98995.25;;;12.17;88.04
78986;BME280;68384;55.750;48.746;2023-05-29T01:41:18;98997.03;;;12.22;87.95
78986;BME280;68384;55.750;48.746;2023-05-29T01:42:23;99003.13;;;12.26;87.79
78986;BME280;68384;55.750;48.746;2023-05-29T01:43:26;99004.91;;;12.30;88.22
78986;BME280;68384;55.750;48.746;2023-05-29T01:44:30;99004.97;;;12.34;87.53
78986;BME280;68384;55.750;48.746;2023-05-29T01:45:34;99002.41;;;12.39;87.54
78986;BME280;68384;55.750;48.746;2023-05-29T01:46:39;99018.06;;;12.43;87.16
78986;BME280;68384;55.750;48.746;2023-05-29T01:47:43;99007.72;;;12.46;86.68
78986;BME280;68384;55.750;48.746;2023-05-29T01:48:47;99010.38;;;12.52;86.61
78986;BME280;68384;55.750;48.746;2023-05-29T01:49:51;99011.31;;;12.57;85.97
78986;BME280;68384;55.750;48.746;2023-05-29T01:50:55;99013.94;;;12.62;85.79
78986;BME280;68384;55.750;48.746;2023-05-29T01:51:59;99022.69;;;12.69;85.72
78986;BME280;68384;55.750;48.746;2023-05-29T01:53:03;99014.94;;;12.73;85.42
78986;BME280;68384;55.750;48.746;2023-05-29T01:54:06;99021.06;;;12.77;85.50
78986;BME280;68384;55.750;48.746;2023-05-29T01:55:11;99016.72;;;12.79;84.84
78986;BME280;68384;55.750;48.746;2023-05-29T01:56:14;99016.75;;;12.83;84.41
78986;BME280;68384;55.750;48.746;2023-05-29T01:57:18;99019.44;;;12.88;84.20
78986;BME280;68384;55.750;48.746;2023-05-29T01:58:25;99025.50;;;12.90;83.87
78986;BME280;68384;55.750;48.746;2023-05-29T01:59:30;99022.06;;;12.94;83.84
78986;BME280;68384;55.750;48.746;2023-05-29T02:00:33;99036.88;;;12.98;83.63
78986;BME280;68384;55.750;48.746;2023-05-29T02:01:38;99041.19;;;12.96;83.26
78986;BME280;68384;55.750;48.746;2023-05-29T02:02:42;99040.34;;;12.98;83.29
78986;BME280;68384;55.750;48.746;2023-05-29T02:03:46;99030.81;;;13.00;83.10
78986;BME280;68384;55.750;48.746;2023-05-29T02:04:49;99041.22;;;13.02;83.28
78986;BME280;68384;55.750;48.746;2023-05-29T02:05:54;99043.78;;;12.97;82.91
78986;BME280;68384;55.750;48.746;2023-05-29T02:06:57;99044.66;;;12.98;83.03
78986;BME280;68384;55.750;48.746;2023-05-29T02:08:01;99043.78;;;12.96;83.16
78986;BME280;68384;55.750;48.746;2023-05-29T02:09:04;99045.47;;;12.94;83.08
78986;BME280;68384;55.750;48.746;2023-05-29T02:10:09;99040.28;;;12.94;83.38
78986;BME280;68384;55.750;48.746;2023-05-29T02:11:12;99041.16;;;12.93;83.26
78986;BME280;68384;55.750;48.746;2023-05-29T02:12:17;99051.50;;;12.88;83.08
78986;BME280;68384;55.750;48.746;2023-05-29T02:13:20;99050.63;;;12.85;83.24
78986;BME280;68384;55.750;48.746;2023-05-29T02:14:25;99056.69;;;12.88;83.18
78986;BME280;68384;55.750;48.746;2023-05-29T02:15:29;99051.47;;;12.84;82.85
78986;BME280;68384;55.750;48.746;2023-05-29T02:16:33;99054.06;;;12.82;83.28
78986;BME280;68384;55.750;48.746;2023-05-29T02:17:36;99058.38;;;12.83;83.18
78986;BME280;68384;55.750;48.746;2023-05-29T02:18:40;99052.31;;;12.81;83.12
78986;BME280;68384;55.750;48.746;2023-05-29T02:19:44;99052.31;;;12.83;83.32
78986;BME280;68384;55.750;48.746;2023-05-29T02:20:47;99055.81;;;12.85;82.94
78986;BME280;68384;55.750;48.746;2023-05-29T02:21:57;99049.78;;;12.87;82.92
78986;BME280;68384;55.750;48.746;2023-05-29T02:23:01;99048.06;;;12.89;82.85
78986;BME280;68384;55.750;48.746;2023-05-29T02:24:04;99052.41;;;12.92;82.89
78986;BME280;68384;55.750;48.746;2023-05-29T02:25:08;99054.16;;;12.93;82.75
78986;BME280;68384;55.750;48.746;2023-05-29T02:26:12;99045.53;;;12.97;82.86
78986;BME280;68384;55.750;48.746;2023-05-29T02:27:18;99049.00;;;12.97;82.60
78986;BME280;68384;55.750;48.746;2023-05-29T02:28:21;99048.19;;;13.01;82.69
78986;BME280;68384;55.750;48.746;2023-05-29T02:29:26;99056.03;;;13.06;82.43
78986;BME280;68384;55.750;48.746;2023-05-29T02:30:29;99054.31;;;13.06;82.24
78986;BME280;68384;55.750;48.746;2023-05-29T02:31:34;99053.41;;;13.07;82.17
78986;BME280;68384;55.750;48.746;2023-05-29T02:32:40;99054.31;;;13.08;82.23
78986;BME280;68384;55.750;48.746;2023-05-29T02:33:43;99061.28;;;13.13;82.30
78986;BME280;68384;55.750;48.746;2023-05-29T02:34:46;99056.97;;;13.15;81.98
78986;BME280;68384;55.750;48.746;2023-05-29T02:35:50;99057.88;;;13.19;82.07
78986;BME280;68384;55.750;48.746;2023-05-29T02:36:53;99065.69;;;13.19;81.69
78986;BME280;68384;55.750;48.746;2023-05-29T02:37:58;99064.81;;;13.17;81.79
78986;BME280;68384;55.750;48.746;2023-05-29T02:39:01;99065.72;;;13.20;81.78
78986;BME280;68384;55.750;48.746;2023-05-29T02:40:07;99065.72;;;13.20;81.86
78986;BME280;68384;55.750;48.746;2023-05-29T02:41:13;99073.53;;;13.20;81.97
78986;BME280;68384;55.750;48.746;2023-05-29T02:42:16;99067.41;;;13.18;81.99
78986;BME280;68384;55.750;48.746;2023-05-29T02:43:22;99065.72;;;13.20;82.24
78986;BME280;68384;55.750;48.746;2023-05-29T02:44:27;99066.56;;;13.21;82.17
78986;BME280;68384;55.750;48.746;2023-05-29T02:45:30;99064.00;;;13.22;81.92
78986;BME280;68384;55.750;48.746;2023-05-29T02:46:34;99070.06;;;13.24;82.02
78986;BME280;68384;55.750;48.746;2023-05-29T02:47:38;99071.84;;;13.27;81.85
78986;BME280;68384;55.750;48.746;2023-05-29T02:48:42;99066.63;;;13.27;81.48
78986;BME280;68384;55.750;48.746;2023-05-29T02:49:46;99064.06;;;13.30;81.53
78986;BME280;68384;55.750;48.746;2023-05-29T02:50:51;99064.13;;;13.33;81.36
78986;BME280;68384;55.750;48.746;2023-05-29T02:51:54;99063.22;;;13.31;81.25
78986;BME280;68384;55.750;48.746;2023-05-29T02:52:59;99062.31;;;13.31;81.23
78986;BME280;68384;55.750;48.746;2023-05-29T02:54:02;99072.78;;;13.32;81.31
78986;BME280;68384;55.750;48.746;2023-05-29T02:55:07;99067.59;;;13.35;80.86
78986;BME280;68384;55.750;48.746;2023-05-29T02:56:10;99070.19;;;13.35;81.15
78986;BME280;68384;55.750;48.746;2023-05-29T02:57:14;99067.63;;;13.37;80.68
78986;BME280;68384;55.750;48.746;2023-05-29T02:58:18;99072.81;;;13.35;80.40
78986;BME280;68384;55.750;48.746;2023-05-29T02:59:23;99071.06;;;13.37;80.91
78986;BME280;68384;55.750;48.746;2023-05-29T03:00:27;99077.22;;;13.42;81.13
78986;BME280;68384;55.750;48.746;2023-05-29T03:01:32;99066.84;;;13.45;80.91
78986;BME280;68384;55.750;48.746;2023-05-29T03:02:36;99072.94;;;13.49;80.98
78986;BME280;68384;55.750;48.746;2023-05-29T03:03:40;99074.72;;;13.53;80.78
78986;BME280;68384;55.750;48.746;2023-05-29T03:04:44;99079.06;;;13.55;80.48
78986;BME280;68384;55.750;48.746;2023-05-29T03:05:47;99086.88;;;13.55;80.43
78986;BME280;68384;55.750;48.746;2023-05-29T03:06:50;99082.56;;;13.60;80.33
78986;BME280;68384;55.750;48.746;2023-05-29T03:07:55;99085.19;;;13.62;80.35
78986;BME280;68384;55.750;48.746;2023-05-29T03:08:58;99084.34;;;13.64;80.31
78986;BME280;68384;55.750;48.746;2023-05-29T03:10:02;99084.34;;;13.67;80.53
78986;BME280;68384;55.750;48.746;2023-05-29T03:11:06;99082.66;;;13.69;80.50
78986;BME280;68384;55.750;48.746;2023-05-29T03:12:11;99083.56;;;13.74;80.60
78986;BME280;68384;55.750;48.746;2023-05-29T03:13:14;99083.59;;;13.77;80.44
78986;BME280;68384;55.750;48.746;2023-05-29T03:14:26;99075.75;;;13.79;80.15
78986;BME280;68384;55.750;48.746;2023-05-29T03:15:31;99081.88;;;13.82;80.12
78986;BME280;68384;55.750;48.746;2023-05-29T03:16:35;99082.72;;;13.81;79.70
78986;BME280;68384;55.750;48.746;2023-05-29T03:17:38;99080.16;;;13.83;79.75
78986;BME280;68384;55.750;48.746;2023-05-29T03:18:46;99082.69;;;13.75;79.67
78986;BME280;68384;55.750;48.746;2023-05-29T03:19:53;99079.22;;;13.76;79.93
78986;BME280;68384;55.750;48.746;2023-05-29T03:20:57;99074.91;;;13.81;80.02
78986;BME280;68384;55.750;48.746;2023-05-29T03:22:01;99083.63;;;13.87;80.16
78986;BME280;68384;55.750;48.746;2023-05-29T03:23:06;99086.25;;;13.90;80.18
78986;BME280;68384;55.750;48.746;2023-05-29T03:24:10;99083.69;;;13.96;79.95
78986;BME280;68384;55.750;48.746;2023-05-29T03:25:16;99086.31;;;13.99;79.59
78986;BME280;68384;55.750;48.746;2023-05-29T03:26:20;99088.94;;;13.99;79.67
78986;BME280;68384;55.750;48.746;2023-05-29T03:27:25;99082.03;;;14.07;79.54
78986;BME280;68384;55.750;48.746;2023-05-29T03:28:36;99079.47;;;14.14;79.54
78986;BME280;68384;55.750;48.746;2023-05-29T03:29:42;99082.97;;;14.19;79.32
78986;BME280;68384;55.750;48.746;2023-05-29T03:30:48;99083.88;;;14.27;78.61
78986;BME280;68384;55.750;48.746;2023-05-29T03:31:53;99086.56;;;14.35;78.66
78986;BME280;68384;55.750;48.746;2023-05-29T03:33:02;99095.22;;;14.38;78.23
78986;BME280;68384;55.750;48.746;2023-05-29T03:34:33;99097.94;;;14.52;78.08
78986;BME280;68384;55.750;48.746;2023-05-29T03:35:39;99097.13;;;14.59;77.91
78986;BME280;68384;55.750;48.746;2023-05-29T03:36:42;99097.16;;;14.67;77.38
78986;BME280;68384;55.750;48.746;2023-05-29T03:37:48;99102.38;;;14.71;76.75
78986;BME280;68384;55.750;48.746;2023-05-29T03:38:51;99105.88;;;14.73;75.89
78986;BME280;68384;55.750;48.746;2023-05-29T03:39:55;99104.16;;;14.78;75.48
78986;BME280;68384;55.750;48.746;2023-05-29T03:40:59;99104.16;;;14.83;74.90
78986;BME280;68384;55.750;48.746;2023-05-29T03:42:03;99106.78;;;14.87;74.99
78986;BME280;68384;55.750;48.746;2023-05-29T03:43:06;99105.06;;;14.94;75.06
78986;BME280;68384;55.750;48.746;2023-05-29T03:44:10;99115.50;;;14.98;75.06
78986;BME280;68384;55.750;48.746;2023-05-29T03:45:13;99112.03;;;15.01;74.89
78986;BME280;68384;55.750;48.746;2023-05-29T03:46:19;99113.81;;;15.04;74.32
78986;BME280;68384;55.750;48.746;2023-05-29T03:47:22;99118.16;;;15.05;74.22
78986;BME280;68384;55.750;48.746;2023-05-29T03:48:27;99120.78;;;15.12;74.42
78986;BME280;68384;55.750;48.746;2023-05-29T03:49:30;99116.44;;;15.19;74.00
78986;BME280;68384;55.750;48.746;2023-05-29T03:50:34;99108.63;;;15.23;73.43
78986;BME280;68384;55.750;48.746;2023-05-29T03:51:37;99119.09;;;15.32;73.00
78986;BME280;68384;55.750;48.746;2023-05-29T03:52:41;99113.84;;;15.37;72.51
78986;BME280;68384;55.750;48.746;2023-05-29T03:53:44;99122.59;;;15.39;72.40
78986;BME280;68384;55.750;48.746;2023-05-29T03:54:48;99124.34;;;15.44;72.45
78986;BME280;68384;55.750;48.746;2023-05-29T03:55:51;99128.69;;;15.50;72.99
78986;BME280;68384;55.750;48.746;2023-05-29T03:56:56;99133.09;;;15.57;73.05
78986;BME280;68384;55.750;48.746;2023-05-29T03:58:01;99124.38;;;15.59;71.93
78986;BME280;68384;55.750;48.746;2023-05-29T03:59:05;99120.91;;;15.64;71.67
78986;BME280;68384;55.750;48.746;2023-05-29T04:00:09;99128.75;;;15.68;71.48
78986;BME280;68384;55.750;48.746;2023-05-29T04:01:14;99134.84;;;15.69;71.81
78986;BME280;68384;55.750;48.746;2023-05-29T04:02:19;99133.09;;;15.78;71.31
78986;BME280;68384;55.750;48.746;2023-05-29T04:03:23;99132.22;;;15.76;70.50
78986;BME280;68384;55.750;48.746;2023-05-29T04:04:25;99124.38;;;15.70;70.58
78986;BME280;68384;55.750;48.746;2023-05-29T04:05:29;99115.66;;;15.67;69.05
78986;BME280;68384;55.750;48.746;2023-05-29T04:06:33;99128.75;;;15.68;70.26
78986;BME280;68384;55.750;48.746;2023-05-29T04:07:41;99134.81;;;15.64;70.05
78986;BME280;68384;55.750;48.746;2023-05-29T04:08:44;99135.66;;;15.52;69.80
78986;BME280;68384;55.750;48.746;2023-05-29T04:09:48;99141.72;;;15.39;70.72
78986;BME280;68384;55.750;48.746;2023-05-29T04:10:51;99143.47;;;15.45;70.91
78986;BME280;68384;55.750;48.746;2023-05-29T04:11:57;99134.78;;;15.43;70.87
78986;BME280;68384;55.750;48.746;2023-05-29T04:13:01;99144.31;;;15.29;71.32
78986;BME280;68384;55.750;48.746;2023-05-29T04:14:04;99143.44;;;15.31;71.32
78986;BME280;68384;55.750;48.746;2023-05-29T04:15:09;99141.69;;;15.29;70.38
78986;BME280;68384;55.750;48.746;2023-05-29T04:16:12;99151.31;;;15.28;69.88
78986;BME280;68384;55.750;48.746;2023-05-29T04:17:35;99147.81;;;15.34;70.04
78986;BME280;68384;55.750;48.746;2023-05-29T04:19:15;99152.16;;;15.29;69.79
78986;BME280;68384;55.750;48.746;2023-05-29T04:20:20;99148.69;;;15.30;70.31
78986;BME280;68384;55.750;48.746;2023-05-29T04:23:05;99150.44;;;15.40;70.71
78986;BME280;68384;55.750;48.746;2023-05-29T04:24:08;99158.25;;;15.37;70.55
78986;BME280;68384;55.750;48.746;2023-05-29T04:25:13;99149.53;;;15.27;70.87
78986;BME280;68384;55.750;48.746;2023-05-29T04:26:17;99151.28;;;15.22;71.35
78986;BME280;68384;55.750;48.746;2023-05-29T04:27:20;99150.44;;;15.28;71.63
78986;BME280;68384;55.750;48.746;2023-05-29T04:28:23;99153.91;;;15.34;71.77
78986;BME280;68384;55.750;48.746;2023-05-29T04:29:30;99151.31;;;15.45;71.22
78986;BME280;68384;55.750;48.746;2023-05-29T04:30:34;99145.22;;;15.49;70.41
78986;BME280;68384;55.750;48.746;2023-05-29T04:31:38;99152.25;;;15.61;70.08
78986;BME280;68384;55.750;48.746;2023-05-29T04:32:43;99149.63;;;15.56;69.68
78986;BME280;68384;55.750;48.746;2023-05-29T04:33:47;99149.63;;;15.59;69.46
78986;BME280;68384;55.750;48.746;2023-05-29T04:34:51;99152.25;;;15.73;69.17
78986;BME280;68384;55.750;48.746;2023-05-29T04:35:56;99149.63;;;15.83;69.25
78986;BME280;68384;55.750;48.746;2023-05-29T04:36:59;99151.38;;;15.86;68.88
78986;BME280;68384;55.750;48.746;2023-05-29T04:38:03;99149.66;;;15.95;68.33
78986;BME280;68384;55.750;48.746;2023-05-29T04:39:08;99154.00;;;15.93;68.78
78986;BME280;68384;55.750;48.746;2023-05-29T04:40:12;99151.38;;;16.02;68.70
78986;BME280;68384;55.750;48.746;2023-05-29T04:41:21;99150.50;;;16.11;68.28
78986;BME280;68384;55.750;48.746;2023-05-29T04:42:35;99144.44;;;16.04;68.13
78986;BME280;68384;55.750;48.746;2023-05-29T04:43:39;99152.28;;;16.07;68.65
78986;BME280;68384;55.750;48.746;2023-05-29T04:44:43;99145.25;;;16.05;68.55
78986;BME280;68384;55.750;48.746;2023-05-29T04:45:47;99148.78;;;16.04;68.78
78986;BME280;68384;55.750;48.746;2023-05-29T04:46:51;99157.50;;;16.01;69.05
78986;BME280;68384;55.750;48.746;2023-05-29T04:47:57;99152.28;;;15.88;69.07
78986;BME280;68384;55.750;48.746;2023-05-29T04:49:01;99156.63;;;15.87;68.88
78986;BME280;68384;55.750;48.746;2023-05-29T04:50:06;99160.97;;;15.79;69.46
78986;BME280;68384;55.750;48.746;2023-05-29T04:51:10;99159.22;;;15.66;68.52
78986;BME280;68384;55.750;48.746;2023-05-29T04:52:13;99158.28;;;15.49;68.57
78986;BME280;68384;55.750;48.746;2023-05-29T04:53:17;99159.16;;;15.45;68.27
78986;BME280;68384;55.750;48.746;2023-05-29T04:54:22;99158.28;;;15.41;68.97
78986;BME280;68384;55.750;48.746;2023-05-29T04:55:29;99156.53;;;15.39;68.59
78986;BME280;68384;55.750;48.746;2023-05-29T04:56:32;99150.41;;;15.37;68.83
78986;BME280;68384;55.750;48.746;2023-05-29T04:57:36;99160.91;;;15.44;68.79
78986;BME280;68384;55.750;48.746;2023-05-29T04:58:43;99168.72;;;15.31;68.42
78986;BME280;68384;55.750;48.746;2023-05-29T04:59:47;99155.63;;;15.29;67.58
78986;BME280;68384;55.750;48.746;2023-05-29T05:00:50;99153.91;;;15.30;67.96
78986;BME280;68384;55.750;48.746;2023-05-29T05:01:55;99162.63;;;15.30;68.39
78986;BME280;68384;55.750;48.746;2023-05-29T05:02:59;99152.16;;;15.30;68.28
78986;BME280;68384;55.750;48.746;2023-05-29T05:04:04;99156.53;;;15.37;68.92
78986;BME280;68384;55.750;48.746;2023-05-29T05:05:08;99158.28;;;15.43;68.80
78986;BME280;68384;55.750;48.746;2023-05-29T05:06:11;99164.41;;;15.42;67.60
78986;BME280;68384;55.750;48.746;2023-05-29T05:07:15;99162.66;;;15.44;67.39
78986;BME280;68384;55.750;48.746;2023-05-29T05:08:18;99166.16;;;15.47;66.97
78986;BME280;68384;55.750;48.746;2023-05-29T05:09:22;99157.41;;;15.44;66.67
78986;BME280;68384;55.750;48.746;2023-05-29T05:10:26;99166.13;;;15.50;67.21
78986;BME280;68384;55.750;48.746;2023-05-29T05:11:31;99163.56;;;15.55;67.16
78986;BME280;68384;55.750;48.746;2023-05-29T05:12:34;99170.53;;;15.70;67.45
78986;BME280;68384;55.750;48.746;2023-05-29T05:13:39;99170.53;;;15.76;67.05
78986;BME280;68384;55.750;48.746;2023-05-29T05:14:42;99167.94;;;15.88;67.56
78986;BME280;68384;55.750;48.746;2023-05-29T05:15:46;99167.06;;;15.99;66.95
78986;BME280;68384;55.750;48.746;2023-05-29T05:16:49;99168.81;;;15.99;66.17
78986;BME280;68384;55.750;48.746;2023-05-29T05:17:54;99174.06;;;16.02;66.52
78986;BME280;68384;55.750;48.746;2023-05-29T05:18:58;99164.47;;;15.93;66.97
78986;BME280;68384;55.750;48.746;2023-05-29T05:20:05;99174.03;;;15.93;66.55
78986;BME280;68384;55.750;48.746;2023-05-29T05:21:08;99174.91;;;15.92;66.74
78986;BME280;68384;55.750;48.746;2023-05-29T05:22:13;99180.13;;;16.02;66.90
78986;BME280;68384;55.750;48.746;2023-05-29T05:23:16;99173.16;;;16.10;66.82
78986;BME280;68384;55.750;48.746;2023-05-29T05:24:20;99174.03;;;16.11;67.46
78986;BME280;68384;55.750;48.746;2023-05-29T05:25:23;99174.91;;;16.21;67.91
78986;BME280;68384;55.750;48.746;2023-05-29T05:26:27;99182.75;;;16.27;66.53
78986;BME280;68384;55.750;48.746;2023-05-29T05:27:30;99189.69;;;16.41;66.20
78986;BME280;68384;55.750;48.746;2023-05-29T05:28:35;99194.06;;;16.41;64.31
78986;BME280;68384;55.750;48.746;2023-05-29T05:29:39;99187.06;;;16.44;65.17
78986;BME280;68384;55.750;48.746;2023-05-29T05:30:43;99194.06;;;16.36;64.05
78986;BME280;68384;55.750;48.746;2023-05-29T05:31:46;99186.22;;;16.29;64.09
78986;BME280;68384;55.750;48.746;2023-05-29T05:32:50;99182.75;;;16.40;64.50
78986;BME280;68384;55.750;48.746;2023-05-29T05:33:53;99186.22;;;16.36;64.97
78986;BME280;68384;55.750;48.746;2023-05-29T05:34:59;99188.00;;;16.27;65.03
78986;BME280;68384;55.750;48.746;2023-05-29T05:36:02;99193.22;;;16.25;64.47
78986;BME280;68384;55.750;48.746;2023-05-29T05:37:08;99190.63;;;16.13;64.54
78986;BME280;68384;55.750;48.746;2023-05-29T05:38:12;99199.31;;;16.10;64.43
78986;BME280;68384;55.750;48.746;2023-05-29T05:39:17;99185.38;;;15.96;64.97
78986;BME280;68384;55.750;48.746;2023-05-29T05:40:21;99190.63;;;16.10;64.96
78986;BME280;68384;55.750;48.746;2023-05-29T05:41:32;99192.34;;;16.09;65.07